Time;durP1;ratioP1;P1;durP2;ratioP2;P2;SDS_P1;SDS_P2;PMS_P1;PMS_P2;Temp;Humidity;BMP_temperature;BMP_pressure;BME280_temperature;BME280_humidity;BME280_pressure;Samples;Min_cycle;Max_cycle;Signal;HPM_P1;HPM_P2
2023/11/15 00:01:22;;;;;;;37.20;21.08;;;;;;;;;;5090801;28;20047;-66
2023/11/15 00:04:27;;;;;;;35.90;20.35;;;;;;;;;;5090555;28;20059;-68
2023/11/15 00:07:32;;;;;;;35.47;16.88;;;;;;;;;;5090147;28;20052;-70
2023/11/15 00:10:39;;;;;;;27.73;17.08;;;;;;;;;;5090653;28;20047;-69
2023/11/15 00:13:45;;;;;;;29.13;18.08;;;;;;;;;;5090968;28;20502;-69
2023/11/15 00:16:50;;;;;;;34.33;16.17;;;;;;;;;;5094181;28;20055;-69
2023/11/15 00:19:54;;;;;;;29.30;15.55;;;;;;;;;;5094494;28;20391;-68
2023/11/15 00:22:58;;;;;;;26.35;16.48;;;;;;;;;;5094152;28;20246;-68
2023/11/15 00:26:04;;;;;;;33.83;15.82;;;;;;;;;;5094170;28;20637;-68
2023/11/15 00:29:08;;;;;;;32.78;15.48;;;;;;;;;;5093821;28;20502;-68
2023/11/15 00:32:12;;;;;;;26.10;15.20;;;;;;;;;;5094343;28;20051;-69
2023/11/15 00:35:17;;;;;;;27.40;15.32;;;;;;;;;;5081761;28;20384;-69
2023/11/15 00:38:22;;;;;;;27.20;15.55;;;;;;;;;;5093922;28;20122;-69
2023/11/15 00:41:27;;;;;;;25.52;15.48;;;;;;;;;;5081212;28;20043;-69
2023/11/15 00:44:32;;;;;;;26.98;15.85;;;;;;;;;;5093775;28;20149;-68
2023/11/15 00:47:39;;;;;;;32.92;16.95;;;;;;;;;;5081252;28;20059;-68
2023/11/15 00:50:45;;;;;;;27.90;15.48;;;;;;;;;;5081022;28;20051;-68
2023/11/15 00:53:49;;;;;;;24.73;14.98;;;;;;;;;;5093641;28;20043;-68
2023/11/15 00:56:55;;;;;;;29.25;13.45;;;;;;;;;;5081104;28;20043;-68
2023/11/15 01:00:00;;;;;;;29.10;14.82;;;;;;;;;;5080846;28;20043;-69
2023/11/15 01:03:05;;;;;;;20.92;12.45;;;;;;;;;;5080870;28;20063;-67
2023/11/15 01:06:09;;;;;;;21.42;12.27;;;;;;;;;;5080666;28;20047;-68
2023/11/15 01:09:14;;;;;;;23.77;13.00;;;;;;;;;;5093158;28;20454;-68
2023/11/15 01:12:18;;;;;;;24.63;11.75;;;;;;;;;;5093288;28;20039;-68
2023/11/15 01:15:23;;;;;;;23.08;10.52;;;;;;;;;;5069151;28;20506;-68
2023/11/15 01:18:29;;;;;;;16.27;10.93;;;;;;;;;;5093172;28;20138;-69
2023/11/15 01:21:33;;;;;;;20.40;10.73;;;;;;;;;;5093025;28;20039;-67
2023/11/15 01:24:39;;;;;;;21.70;10.55;;;;;;;;;;5080376;28;20051;-67
2023/11/15 01:27:46;;;;;;;23.35;11.25;;;;;;;;;;5092850;28;20043;-67
2023/11/15 01:30:50;;;;;;;20.60;10.88;;;;;;;;;;5092697;28;20051;-67
2023/11/15 01:33:54;;;;;;;15.40;10.18;;;;;;;;;;5080420;28;20047;-67
2023/11/15 01:36:59;;;;;;;18.00;9.88;;;;;;;;;;5080248;28;20153;-67
2023/11/15 01:40:06;;;;;;;21.00;10.65;;;;;;;;;;5092835;28;20036;-68
2023/11/15 01:43:10;;;;;;;21.95;9.98;;;;;;;;;;5080262;28;20043;-67
2023/11/15 01:46:15;;;;;;;21.02;10.02;;;;;;;;;;5092378;28;20040;-67
2023/11/15 01:49:22;;;;;;;19.58;9.27;;;;;;;;;;5092118;28;20076;-67
2023/11/15 01:52:28;;;;;;;16.17;8.95;;;;;;;;;;5092090;28;20032;-67
2023/11/15 01:55:33;;;;;;;17.45;8.00;;;;;;;;;;5080171;28;20618;-67
2023/11/15 01:58:38;;;;;;;16.63;6.85;;;16.40;99.90;;;;;;5079977;28;20036;-67
2023/11/15 02:01:42;;;;;;;19.45;6.40;;;;;;;;;;5079640;28;20412;-67
2023/11/15 02:04:47;;;;;;;13.73;6.30;;;;;;;;;;5092044;28;20036;-68
2023/11/15 02:07:51;;;;;;;15.45;6.68;;;;;;;;;;5051996;28;20124;-68
2023/11/15 02:10:55;;;;;;;12.50;6.70;;;;;;;;;;5051164;28;20044;-68
2023/11/15 02:14:00;;;;;;;13.93;6.93;;;;;;;;;;5051917;28;20073;-68
2023/11/15 02:17:05;;;;;;;19.15;6.07;;;;;;;;;;5050918;28;20037;-69
2023/11/15 02:20:10;;;;;;;18.88;6.07;;;;;;;;;;5051040;28;20045;-68
2023/11/15 02:23:14;;;;;;;14.73;6.07;;;;;;;;;;5051684;28;20142;-68
2023/11/15 02:26:19;;;;;;;15.57;6.95;;;;;;;;;;5050785;28;20037;-68
2023/11/15 02:29:24;;;;;;;14.13;6.35;;;;;;;;;;5051255;28;20053;-68
2023/11/15 02:32:31;;;;;;;15.43;7.15;;;;;;;;;;5051477;28;20028;-68
2023/11/15 02:35:35;;;;;;;19.75;7.72;;;;;;;;;;5051446;28;20619;-68
2023/11/15 02:38:40;;;;;;;18.92;8.40;;;;;;;;;;5051385;28;20037;-68
2023/11/15 02:41:44;;;;;;;14.52;8.80;;;;;;;;;;5051469;28;20611;-68
2023/11/15 02:44:48;;;;;;;19.25;9.75;;;;;;;;;;5050301;28;20164;-68
2023/11/15 02:47:52;;;;;;;14.63;8.32;;;;;;;;;;5051084;28;20033;-68
2023/11/15 02:50:56;;;;;;;16.98;8.98;;;;;;;;;;5050970;28;20037;-68
2023/11/15 02:54:04;;;;;;;16.00;8.55;;;;;;;;;;5051107;28;20033;-68
2023/11/15 02:57:08;;;;;;;19.00;9.18;;;;;;;;;;5050256;28;20485;-68
2023/11/15 03:00:12;;;;;;;19.73;10.25;;;;;;;;;;5051284;28;20033;-68
2023/11/15 03:03:16;;;;;;;15.68;9.82;;;;;;;;;;5061956;28;20044;-68
2023/11/15 03:06:21;;;;;;;22.02;13.43;;;;;;;;;;5066757;28;20052;-68
2023/11/15 03:09:25;;;;;;;23.80;11.65;;;;;;;;;;5090895;28;20059;-68
2023/11/15 03:12:32;;;;;;;20.17;11.63;;;;;;;;;;5091009;28;20490;-68
2023/11/15 03:15:36;;;;;;;15.25;9.50;;;;;;;;;;5090959;28;20051;-68
2023/11/15 03:18:42;;;;;;;21.05;9.52;;;;;;;;;;5091174;28;20400;-68
2023/11/15 03:21:47;;;;;;;16.67;9.10;;;;;;;;;;5090998;28;20040;-68
2023/11/15 03:24:51;;;;;;;15.43;9.90;;;;;;;;;;5091210;28;20372;-68
2023/11/15 03:27:56;;;;;;;17.30;9.55;;;;;;;;;;5091141;28;20036;-68
2023/11/15 03:31:01;;;;;;;20.15;9.70;;;;;;;;;;5091121;28;20044;-68
2023/11/15 03:34:06;;;;;;;17.17;8.45;;;;;;;;;;5091027;28;20369;-68
2023/11/15 03:37:10;;;;;;;18.80;8.55;;;;;;;;;;5090932;28;20040;-68
2023/11/15 03:40:15;;;;;;;17.02;9.10;;;;;;;;;;5078477;28;20040;-68
2023/11/15 03:43:19;;;;;;;24.13;9.70;;;;;;;;;;5090950;28;20472;-68
2023/11/15 03:46:24;;;;;;;17.75;8.73;;;;;;;;;;5090833;28;20039;-68
2023/11/15 03:49:28;;;;;;;16.33;7.50;;;;;;;;;;5092410;28;20048;-68
2023/11/15 03:52:32;;;;;;;14.70;7.53;;;;;;;;;;5094694;28;20028;-68
2023/11/15 03:55:36;;;;;;;13.48;6.65;;;;;;;;;;5094330;28;20040;-68
2023/11/15 03:58:41;;;;;;;17.15;7.97;;;;;;;;;;5094383;28;20031;-68
2023/11/15 04:01:50;;;;;;;16.27;7.20;;;;;;;;;;5081760;28;20032;-68
2023/11/15 04:04:54;;;;;;;15.20;7.45;;;;;;;;;;5094442;28;20032;-68
2023/11/15 04:07:58;;;;;;;14.13;7.63;;;;;;;;;;5081632;28;20472;-68
2023/11/15 04:11:04;;;;;;;14.80;6.90;;;;;;;;;;5081803;28;20040;-68
2023/11/15 04:14:08;;;;;;;16.48;7.65;;;;;;;;;;5094476;28;20036;-68
2023/11/15 04:17:14;;;;;;;13.63;6.40;;;;;;;;;;5094052;28;20032;-68
2023/11/15 04:20:18;;;;;;;15.63;7.20;;;;;;;;;;5094361;28;20479;-68
2023/11/15 04:23:23;;;;;;;13.13;6.90;;;;;;;;;;5094313;28;20036;-68
2023/11/15 04:26:27;;;;;;;25.73;8.00;;;;;;;;;;5081118;28;20376;-67
2023/11/15 04:29:32;;;;;;;15.48;7.40;;;;;;;;;;5081107;28;20044;-67
2023/11/15 04:32:36;;;;;;;16.20;7.50;;;;;;;;;;5093678;28;20036;-67
2023/11/15 04:35:40;;;;;;;18.35;8.50;;;;;;;;;;5093582;28;20040;-67
2023/11/15 04:38:45;;;;;;;17.83;7.78;;;;;;;;;;5093922;28;20036;-67
2023/11/15 04:41:49;;;;;;;18.63;8.88;;;;;;;;;;5093863;28;20044;-67
2023/11/15 04:44:54;;;;;;;19.73;7.90;;;;;;;;;;5093614;28;20468;-67
2023/11/15 04:47:59;;;;;;;11.38;7.03;;;;;;;;;;5093783;28;20036;-68
2023/11/15 04:51:03;;;;;;;17.70;8.27;;;;;;;;;;5093522;28;20044;-68
2023/11/15 04:54:07;;;;;;;19.40;8.10;;;;;;;;;;5093796;28;20032;-68
2023/11/15 04:57:12;;;;;;;16.20;6.97;;;;;;;;;;5093923;28;20479;-68
2023/11/15 05:00:19;;;;;;;29.38;8.48;;;;;;;;;;5092983;28;20036;-68
2023/11/15 05:03:23;;;;;;;14.52;7.20;;;;;;;;;;5093567;28;20475;-68
2023/11/15 05:06:27;;;;;;;19.02;8.35;;;;;;;;;;5093097;28;20044;-68
2023/11/15 05:09:32;;;;;;;17.85;7.60;;;;;;;;;;5093176;28;20044;-67
2023/11/15 05:12:36;;;;;;;16.10;7.88;;;;;;;;;;5081030;28;20365;-67
2023/11/15 05:15:44;;;;;;;16.45;7.88;;;;;;;;;;5092847;28;20040;-67
2023/11/15 05:18:48;;;;;;;13.10;7.72;;;;;;;;;;5092972;28;20503;-67
2023/11/15 05:21:52;;;;;;;13.38;7.10;;;;;;;;;;5092885;28;20043;-68
2023/11/15 05:24:57;;;;;;;15.05;7.22;;;;;;;;;;5092968;28;20062;-68
2023/11/15 05:28:01;;;;;;;14.57;7.07;;;;;;;;;;5092859;28;20413;-68
2023/11/15 05:31:05;;;;;;;16.65;7.03;;;;;;;;;;5093004;28;20043;-68
2023/11/15 05:34:10;;;;;;;12.50;7.28;;;;;;;;;;5092691;28;20036;-68
2023/11/15 05:37:14;;;;;;;14.85;7.20;;;;;;;;;;5092923;28;20495;-68
2023/11/15 05:40:18;;;;;;;16.02;7.30;;;;;;;;;;5092661;28;20040;-68
2023/11/15 05:43:23;;;;;;;18.17;7.82;;;;;;;;;;5092845;28;20032;-68
2023/11/15 05:46:27;;;;;;;13.13;7.70;;;;;;;;;;5092385;28;20031;-68
2023/11/15 05:49:32;;;;;;;19.65;9.13;;;;;;;;;;5092368;28;20048;-69
2023/11/15 05:52:40;;;;;;;21.60;8.52;;;;;;;;;;5092518;28;20365;-68
2023/11/15 05:55:44;;;;;;;25.67;9.13;;;;;;;;;;5092416;28;20032;-68
2023/11/15 05:58:48;;;;;;;17.65;8.48;;;;;;;;;;5092067;28;20032;-68
2023/11/15 06:01:54;;;;;;;14.60;8.15;;;;;;;;;;5092236;28;20471;-68
2023/11/15 06:04:59;;;;;;;17.80;8.20;;;;;;;;;;5092176;28;20044;-68
2023/11/15 06:08:03;;;;;;;18.60;7.97;;;;;;;;;;5092149;28;20036;-68
2023/11/15 06:11:07;;;;;;;20.95;8.65;;;;;;;;;;5091372;28;20044;-68
2023/11/15 06:14:14;;;;;;;23.48;8.45;;;;;;;;;;5091769;28;20140;-68
2023/11/15 06:17:18;;;;;;;20.30;8.30;;;;;;;;;;5091923;28;20036;-68
2023/11/15 06:20:22;;;;;;;20.75;8.38;;;;;;;;;;5092061;28;20476;-68
2023/11/15 06:23:27;;;;;;;18.48;8.07;;;;;;;;;;5091933;28;20032;-68
2023/11/15 06:26:36;;;;;;;14.02;8.02;;;;;;;;;;5091643;28;20044;-63
2023/11/15 06:29:41;;;;;;;23.98;8.25;;;;;;;;;;5091180;28;20040;-63
2023/11/15 06:32:45;;;;;;;16.73;8.32;;;;;;;;;;5091499;28;20028;-63
2023/11/15 06:35:49;;;;;;;19.88;8.90;;;;;;;;;;5091264;28;20368;-63
2023/11/15 06:38:53;;;;;;;17.58;8.70;;;;;;;;;;5091529;28;20040;-63
2023/11/15 06:41:58;;;;;;;15.68;8.82;;;;;;;;;;5091000;28;20036;-64
2023/11/15 06:45:02;;;;;;;19.90;8.73;;;;;;;;;;5089686;28;20036;-64
2023/11/15 06:48:07;;;;;;;20.90;7.93;;;;;;;;;;5089704;28;20044;-64
2023/11/15 06:51:12;;;;;;;20.95;8.32;;;;;;;;;;5090508;28;20044;-64
2023/11/15 06:54:16;;;;;;;18.38;7.90;;;;;;;;;;5090769;28;20040;-64
2023/11/15 06:57:21;;;;;;;20.85;7.93;;;;;;;;;;5091107;28;20040;-65
2023/11/15 07:00:25;;;;;;;16.45;6.70;;;;;;;;;;5091104;28;20044;-64
2023/11/15 07:03:30;;;;;;;14.77;7.60;;;;;;;;;;5091066;28;20040;-64
2023/11/15 07:06:34;;;;;;;16.65;6.80;;;;;;;;;;5090619;28;20048;-64
2023/11/15 07:09:38;;;;;;;14.73;7.00;;;;;;;;;;5090844;28;20052;-68
2023/11/15 07:12:43;;;;;;;18.20;7.80;;;;;;;;;;5091173;28;20468;-63
2023/11/15 07:15:50;;;;;;;18.83;7.80;;;;;;;;;;5090885;28;20044;-64
2023/11/15 07:18:55;;;;;;;15.20;7.35;;;;;;;;;;5089785;28;20044;-64
2023/11/15 07:22:00;;;;;;;15.93;6.20;;;;;;;;;;5090944;28;20040;-64
2023/11/15 07:25:06;;;;;;;17.23;7.47;;;;;;;;;;5094977;28;20036;-64
2023/11/15 07:28:12;;;;;;;23.35;6.85;;;;;;;;;;5095102;28;20028;-63
2023/11/15 07:31:18;;;;;;;12.77;5.47;;;;;;;;;;5094543;28;20044;-64
2023/11/15 07:34:23;;;;;;;20.58;7.22;;;17.50;99.90;;;;;;5094568;28;20024;-64
2023/11/15 07:37:28;;;;;;;18.15;7.50;;;;;;;;;;5094806;28;20145;-64
2023/11/15 07:40:32;;;;;;;23.55;8.80;;;;;;;;;;5094696;28;20381;-65
2023/11/15 07:43:37;;;;;;;24.20;8.60;;;;;;;;;;5094983;28;20036;-64
2023/11/15 07:46:42;;;;;;;14.65;8.95;;;;;;;;;;5094640;28;20040;-64
2023/11/15 07:49:46;;;;;;;18.95;8.82;;;;;;;;;;5094474;28;20400;-64
2023/11/15 07:52:52;;;;;;;24.20;9.93;;;;;;;;;;5094249;28;20040;-64
2023/11/15 07:55:57;;;;;;;25.30;9.75;;;;;;;;;;5094246;28;20044;-64
2023/11/15 07:59:01;;;;;;;27.13;10.23;;;;;;;;;;5094291;28;20040;-64
2023/11/15 08:02:06;;;;;;;18.38;9.00;;;;;;;;;;5094463;28;20051;-64
2023/11/15 08:05:10;;;;;;;21.73;9.10;;;;;;;;;;5094301;28;20040;-64
2023/11/15 08:08:14;;;;;;;21.80;8.73;;;;;;;;;;5094148;28;20048;-64
2023/11/15 08:11:21;;;;;;;17.80;9.15;;;;;;;;;;5094032;28;20484;-64
2023/11/15 08:14:25;;;;;;;17.08;7.80;;;;;;;;;;5094180;28;20036;-64
2023/11/15 08:17:29;;;;;;;15.00;8.48;;;;;;;;;;5094094;28;20040;-64
2023/11/15 08:20:34;;;;;;;11.02;6.43;;;;;;;;;;5093728;28;20553;-64
2023/11/15 08:23:42;;;;;;;14.27;7.80;;;;;;;;;;5081902;28;20044;-64
2023/11/15 08:26:46;;;;;;;23.20;8.90;;;;;;;;;;5093559;28;20036;-64
2023/11/15 08:29:51;;;;;;;28.35;9.52;;;;;;;;;;5093424;28;20048;-64
2023/11/15 08:32:56;;;;;;;16.70;7.18;;;;;;;;;;5081294;28;20192;-64
2023/11/15 08:36:00;;;;;;;18.08;8.18;;;;;;;;;;5080363;28;20044;-64
2023/11/15 08:39:12;;;;;;;18.75;8.93;;;;;;;;;;5093559;28;20032;-64
2023/11/15 08:42:16;;;;;;;21.63;9.93;;;;;;;;;;5093531;28;20044;-64
2023/11/15 08:45:21;;;;;;;23.80;8.55;;;;;;;;;;5093247;28;20048;-64
2023/11/15 08:48:26;;;;;;;23.58;8.85;;;;;;;;;;5093436;28;20040;-64
2023/11/15 08:51:31;;;;;;;17.45;7.13;;;;;;;;;;5093525;28;20077;-64
2023/11/15 08:54:37;;;;;;;20.20;9.27;;;;;;;;;;5093546;28;20036;-64
2023/11/15 08:57:41;;;;;;;29.00;9.15;;;;;;;;;;5080689;28;20032;-64
2023/11/15 09:00:46;;;;;;;22.80;10.93;;;;;;;;;;5093113;28;20032;-64
2023/11/15 09:03:50;;;;;;;24.77;9.73;;;;;;;;;;5093184;28;20047;-64
2023/11/15 09:06:55;;;;;;;24.27;8.95;;;;;;;;;;5092910;28;20068;-64
2023/11/15 09:10:00;;;;;;;22.38;9.50;;;;;;;;;;5093173;28;20052;-64
2023/11/15 09:13:08;;;;;;;20.55;8.88;;;;;;;;;;5093141;28;20040;-64
2023/11/15 09:16:12;;;;;;;18.75;8.18;;;;;;;;;;5092786;28;20476;-64
2023/11/15 09:19:20;;;;;;;23.20;8.25;;;;;;;;;;5092994;28;20051;-64
2023/11/15 09:22:24;;;;;;;19.02;7.53;;;20.00;99.90;;;;;;5092675;28;20476;-64
2023/11/15 09:25:30;;;;;;;13.23;6.20;;;19.80;99.90;;;;;;5080341;28;20043;-64
2023/11/15 09:28:34;;;;;;;14.07;5.97;;;;;;;;;;5092484;28;20047;-64
2023/11/15 09:31:38;;;;;;;22.63;8.38;;;;;;;;;;5092416;28;20353;-64
2023/11/15 09:34:43;;;;;;;18.73;7.45;;;;;;;;;;5080275;28;20036;-64
2023/11/15 09:37:47;;;;;;;17.10;6.65;;;;;;;;;;5093221;28;20028;-64
2023/11/15 09:40:52;;;;;;;16.25;6.45;;;;;;;;;;5092847;28;20044;-64
2023/11/15 09:43:56;;;;;;;26.48;6.18;;;19.60;99.90;;;;;;5092733;28;20187;-64
2023/11/15 09:47:03;;;;;;;13.10;4.93;;;;;;;;;;5091533;28;20043;-64
2023/11/15 09:50:09;;;;;;;14.65;3.97;;;19.50;99.90;;;;;;5092309;28;20380;-63
2023/11/15 09:53:16;;;;;;;9.95;4.70;;;;;;;;;;5092724;28;20054;-64
2023/11/15 09:56:21;;;;;;;13.20;4.35;;;;;;;;;;5092280;28;20376;-66
2023/11/15 09:59:24;;;;;;;16.40;3.80;;;;;;;;;;5092348;28;20389;-65
2023/11/15 10:02:31;;;;;;;20.73;3.55;;;;;;;;;;5092048;28;20036;-65
2023/11/15 10:05:39;;;;;;;8.43;2.80;;;;;;;;;;5091884;28;20036;-65
2023/11/15 10:08:53;;;;;;;16.98;4.32;;;19.80;99.90;;;;;;5091617;28;20056;-66
2023/11/15 10:12:02;;;;;;;15.55;3.28;;;19.60;99.90;;;;;;5092343;28;20055;-66
2023/11/15 10:15:08;;;;;;;18.75;3.40;;;19.10;99.90;;;;;;5091957;28;20063;-66
2023/11/15 10:18:28;;;;;;;8.27;2.53;;;20.50;99.90;;;;;;5092109;28;20059;-66
2023/11/15 10:21:33;;;;;;;15.65;3.90;;;20.40;99.90;;;;;;5091883;28;20376;-66
2023/11/15 10:24:40;;;;;;;13.88;6.63;;;;;;;;;;5091710;28;20046;-67
2023/11/15 10:27:46;;;;;;;12.75;4.45;;;20.50;99.90;;;;;;5091517;28;20032;-67
2023/11/15 10:31:07;;;;;;;14.63;4.15;;;19.60;99.90;;;;;;5091326;28;20491;-67
2023/11/15 10:34:13;;;;;;;19.63;3.80;;;21.20;99.90;;;;;;5091329;28;20039;-67
2023/11/15 10:37:17;;;;;;;12.30;3.60;;;21.80;99.90;;;;;;5091514;28;20055;-68
2023/11/15 10:40:24;;;;;;;16.60;3.58;;;22.20;99.90;;;;;;5091576;28;20138;-67
2023/11/15 10:43:28;;;;;;;11.80;3.65;;;22.20;99.90;;;;;;5091353;28;20396;-66
2023/11/15 10:46:33;;;;;;;10.73;2.95;;;21.40;99.90;;;;;;5091279;28;20051;-66
2023/11/15 10:49:43;;;;;;;13.18;4.18;;;21.30;99.90;;;;;;5091214;28;20055;-66
2023/11/15 10:52:51;;;;;;;12.45;3.10;;;21.30;99.90;;;;;;5091094;28;20043;-66
2023/11/15 10:55:57;;;;;;;14.85;3.78;;;21.40;99.90;;;;;;5091155;28;20388;-67
2023/11/15 10:59:04;;;;;;;12.40;3.20;;;21.50;99.90;;;;;;5091019;28;20411;-66
2023/11/15 11:02:09;;;;;;;12.65;2.90;;;21.70;99.90;;;;;;5091168;28;20035;-66
2023/11/15 11:05:40;;;;;;;9.82;3.20;;;21.80;99.90;;;;;;5090915;28;20097;-66
2023/11/15 11:09:26;;;;;;;10.23;3.63;;;21.70;99.90;;;;;;5091091;28;20637;-66
2023/11/15 11:12:36;;;;;;;11.30;2.95;;;21.50;99.90;;;;;;5090649;28;20039;-66
2023/11/15 11:15:41;;;;;;;13.88;2.85;;;21.50;99.90;;;;;;5090336;28;20364;-66
2023/11/15 11:19:11;;;;;;;13.13;3.08;;;21.40;99.90;;;;;;5091143;28;20197;-67
2023/11/15 11:22:17;;;;;;;13.10;2.83;;;21.40;99.90;;;;;;5090761;28;20046;-66
2023/11/15 11:25:21;;;;;;;9.70;2.70;;;21.30;99.90;;;;;;5090830;28;20372;-68
2023/11/15 11:28:27;;;;;;;7.22;2.30;;;21.20;99.90;;;;;;5091033;28;20108;-64
2023/11/15 11:31:31;;;;;;;9.98;3.03;;;21.10;99.90;;;;;;5090447;28;20036;-65
2023/11/15 11:34:37;;;;;;;8.50;3.03;;;21.00;99.90;;;;;;5090774;28;20542;-66
2023/11/15 11:37:44;;;;;;;10.65;3.00;;;20.80;99.90;;;;;;5090908;28;20043;-69
2023/11/15 11:40:49;;;;;;;9.77;2.85;;;20.90;99.90;;;;;;5090945;28;20035;-65
2023/11/15 11:43:58;;;;;;;8.68;2.50;;;20.80;99.90;;;;;;5090824;28;20384;-65
2023/11/15 11:47:03;;;;;;;8.20;3.17;;;20.80;99.90;;;;;;5090877;28;20047;-65
2023/11/15 11:50:07;;;;;;;8.02;2.85;;;20.80;99.90;;;;;;5090412;28;20064;-65
2023/11/15 11:53:11;;;;;;;13.60;3.20;;;20.70;99.90;;;;;;5090862;28;20048;-65
2023/11/15 11:56:18;;;;;;;8.30;2.78;;;20.70;99.90;;;;;;5090583;28;20043;-64
2023/11/15 11:59:22;;;;;;;8.70;2.40;;;20.70;99.90;;;;;;5090593;28;20048;-65
2023/11/15 12:02:35;;;;;;;6.60;2.72;;;20.60;99.90;;;;;;5090292;28;20032;-65
2023/11/15 12:05:39;;;;;;;8.80;2.22;;;20.60;99.90;;;;;;5089866;28;20507;-65
2023/11/15 12:08:53;;;;;;;8.52;3.15;;;20.70;99.90;;;;;;5090549;28;20048;-65
2023/11/15 12:11:58;;;;;;;10.93;2.47;;;20.60;99.90;;;;;;5094448;28;20056;-65
2023/11/15 12:15:06;;;;;;;9.25;2.75;;;20.70;99.90;;;;;;5094164;28;20046;-65
2023/11/15 12:18:13;;;;;;;11.55;2.72;;;20.60;99.90;;;;;;5094327;28;20040;-66
2023/11/15 12:21:17;;;;;;;9.90;3.00;;;21.80;99.90;;;;;;5094010;28;20558;-67
2023/11/15 12:24:24;;;;;;;11.68;2.78;;;20.50;99.90;;;;;;5093863;28;20028;-67
2023/11/15 12:27:28;;;;;;;11.25;2.83;;;20.60;99.90;;;;;;5094212;28;20047;-67
2023/11/15 12:30:32;;;;;;;11.60;2.53;;;20.50;99.90;;;;;;5093842;28;20051;-67
2023/11/15 12:33:36;;;;;;;5.07;2.08;;;20.50;99.90;;;;;;5093955;28;20047;-68
2023/11/15 12:36:41;;;;;;;9.88;2.70;;;20.20;99.90;;;;;;5093724;28;20055;-68
2023/11/15 12:39:45;;;;;;;10.25;2.55;;;20.50;99.90;;;;;;5093984;28;20040;-67
2023/11/15 12:42:54;;;;;;;14.98;2.92;;;20.50;99.90;;;;;;5093482;28;20039;-67
2023/11/15 12:45:59;;;;;;;11.70;2.88;;;20.70;99.90;;;;;;5093585;28;20415;-67
2023/11/15 12:49:11;;;;;;;15.93;2.60;;;20.60;99.90;;;;;;5093491;28;20044;-67
2023/11/15 12:52:15;;;;;;;7.75;2.00;;;20.80;99.90;;;;;;5093663;28;20051;-67
2023/11/15 12:55:50;;;;;;;14.60;3.85;;;20.90;99.90;;;;;;5093250;28;20036;-67
2023/11/15 12:58:55;;;;;;;15.77;2.42;;;20.40;99.90;;;;;;5093356;28;20035;-67
2023/11/15 13:01:59;;;;;;;7.13;2.22;;;23.80;99.90;;;;;;5093169;28;20495;-67
2023/11/15 13:05:05;;;;;;;10.38;2.50;;;20.90;99.90;;;;;;5092941;28;20038;-67
2023/11/15 13:08:09;;;;;;;8.95;2.45;;;20.80;99.90;;;;;;5093483;28;20080;-67
2023/11/15 13:11:18;;;;;;;11.05;1.95;;;20.70;99.90;;;;;;5093141;28;20499;-67
2023/11/15 13:14:24;;;;;;;9.15;2.42;;;20.80;99.90;;;;;;5093051;28;20043;-67
2023/11/15 13:17:29;;;;;;;9.82;2.55;;;20.70;99.90;;;;;;5093031;28;20032;-67
2023/11/15 13:20:35;;;;;;;7.68;2.08;;;20.70;99.90;;;;;;5092703;28;20060;-67
2023/11/15 13:23:44;;;;;;;8.35;2.38;;;20.80;99.90;;;;;;5092686;28;20036;-67
2023/11/15 13:26:50;;;;;;;12.75;2.08;;;20.90;99.90;;;;;;5093024;28;20043;-64
2023/11/15 13:29:54;;;;;;;10.07;2.85;;;20.70;99.90;;;;;;5092549;28;20043;-66
2023/11/15 13:32:58;;;;;;;7.90;2.00;;;20.70;99.90;;;;;;5092727;28;20051;-66
2023/11/15 13:36:06;;;;;;;13.50;2.70;;;20.80;99.90;;;;;;5092444;28;20032;-66
2023/11/15 13:39:14;;;;;;;13.35;2.28;;;20.90;99.90;;;;;;5092790;28;20063;-66
2023/11/15 13:42:19;;;;;;;8.88;2.35;;;20.80;99.90;;;;;;5092630;28;20050;-66
2023/11/15 13:45:26;;;;;;;6.05;1.90;;;23.10;99.90;;;;;;5092369;28;20032;-65
2023/11/15 13:48:31;;;;;;;14.85;2.92;;;20.90;99.90;;;;;;5092570;28;20044;-66
2023/11/15 13:51:36;;;;;;;12.07;2.42;;;21.00;99.90;;;;;;5092199;28;20050;-66
2023/11/15 13:54:40;;;;;;;10.95;2.15;;;20.30;99.90;;;;;;5092394;28;20062;-65
2023/11/15 13:57:44;;;;;;;11.75;2.38;;;20.80;99.90;;;;;;5092265;28;20059;-67
2023/11/15 14:00:52;;;;;;;10.88;2.80;;;21.00;99.90;;;;;;5092449;28;20217;-65
2023/11/15 14:03:55;;;;;;;14.10;2.88;;;20.90;99.90;;;;;;5092122;28;20434;-66
2023/11/15 14:06:59;;;;;;;10.07;3.45;;;20.80;99.90;;;;;;5092101;28;20059;-65
2023/11/15 14:10:04;;;;;;;9.57;2.38;;;20.80;99.90;;;;;;5079612;28;20506;-66
2023/11/15 14:13:08;;;;;;;11.48;2.83;;;20.80;99.90;;;;;;5092308;28;20066;-66
2023/11/15 14:16:12;;;;;;;10.95;2.80;;;20.90;99.90;;;;;;5092095;28;20063;-66
2023/11/15 14:19:16;;;;;;;10.27;2.80;;;20.70;99.90;;;;;;5092201;28;20047;-66
2023/11/15 14:22:20;;;;;;;10.98;2.92;;;19.40;99.90;;;;;;5092048;28;20387;-65
2023/11/15 14:25:31;;;;;;;9.52;2.53;;;20.70;99.90;;;;;;5091971;28;20384;-65
2023/11/15 14:28:35;;;;;;;14.68;2.75;;;20.70;99.90;;;;;;5091983;28;20047;-66
2023/11/15 14:31:40;;;;;;;9.18;2.53;;;20.60;99.90;;;;;;5091331;28;20054;-66
2023/11/15 14:34:44;;;;;;;12.00;3.13;;;20.60;99.90;;;;;;5091828;28;20035;-65
2023/11/15 14:37:51;;;;;;;16.15;2.60;;;20.50;99.90;;;;;;5091447;28;20047;-65
2023/11/15 14:40:55;;;;;;;11.57;2.95;;;21.90;99.90;;;;;;5079072;28;20039;-65
2023/11/15 14:44:03;;;;;;;9.98;2.80;;;20.50;99.90;;;;;;5091182;28;20039;-65
2023/11/15 14:47:09;;;;;;;9.30;3.17;;;19.50;99.90;;;;;;5091187;28;20395;-67
2023/11/15 14:50:14;;;;;;;14.15;2.70;;;20.00;99.90;;;;;;5091072;28;20423;-67
2023/11/15 14:53:29;;;;;;;12.88;2.58;;;20.80;99.90;;;;;;5091200;28;20036;-67
2023/11/15 14:56:33;;;;;;;15.65;3.05;;;20.40;99.90;;;;;;5091717;28;20067;-67
2023/11/15 14:59:46;;;;;;;13.70;2.55;;;20.20;99.90;;;;;;5091139;28;20043;-64
2023/11/15 15:02:50;;;;;;;11.40;2.72;;;20.30;99.90;;;;;;5078763;28;20047;-66
2023/11/15 15:05:54;;;;;;;11.18;2.50;;;20.30;99.90;;;;;;5090818;28;20494;-66
2023/11/15 15:08:58;;;;;;;8.13;2.97;;;20.30;99.90;;;;;;5078744;28;20051;-69
2023/11/15 15:12:04;;;;;;;6.35;1.90;;;20.30;99.90;;;;;;5091300;28;20043;-69
2023/11/15 15:15:11;;;;;;;8.13;2.20;;;20.60;99.90;;;;;;5078657;28;20044;-69
2023/11/15 15:18:16;;;;;;;7.95;2.40;;;20.30;99.90;;;;;;5091563;28;20039;-69
2023/11/15 15:21:21;;;;;;;11.77;3.03;;;20.20;99.90;;;;;;5091061;28;20039;-69
2023/11/15 15:24:25;;;;;;;6.88;2.33;;;20.20;99.90;;;;;;5078665;28;20522;-68
2023/11/15 15:27:29;;;;;;;4.78;2.10;;;20.20;99.90;;;;;;5090870;28;20043;-67
2023/11/15 15:30:33;;;;;;;8.30;2.92;;;20.10;99.90;;;;;;5078367;28;20473;-67
2023/11/15 15:33:37;;;;;;;8.82;2.83;;;20.20;99.90;;;;;;5091064;28;20047;-66
2023/11/15 15:36:41;;;;;;;9.15;3.58;;;20.10;99.90;;;;;;5090983;28;20036;-66
2023/11/15 15:39:45;;;;;;;8.63;2.65;;;20.20;99.90;;;;;;5090364;28;20047;-66
2023/11/15 15:42:49;;;;;;;7.00;2.05;;;20.20;99.90;;;;;;5090793;28;20043;-68
2023/11/15 15:45:53;;;;;;;10.55;3.55;;;20.10;99.90;;;;;;5094723;28;20039;-67
2023/11/15 15:48:57;;;;;;;6.63;2.33;;;20.10;99.90;;;;;;5094559;28;20035;-67
2023/11/15 15:52:01;;;;;;;8.77;2.75;;;20.00;99.90;;;;;;5094365;28;20506;-68
2023/11/15 15:55:06;;;;;;;7.97;3.22;;;19.50;99.90;;;;;;5094737;28;20035;-68
2023/11/15 15:58:10;;;;;;;7.40;2.80;;;20.00;99.90;;;;;;5093617;28;20047;-66
2023/11/15 16:01:15;;;;;;;9.23;3.10;;;20.10;99.90;;;;;;5082063;28;20055;-66
2023/11/15 16:04:20;;;;;;;12.27;3.00;;;20.50;99.90;;;;;;5081755;28;20071;-67
2023/11/15 16:07:24;;;;;;;12.10;2.60;;;20.00;99.90;;;;;;5094097;28;20051;-66
2023/11/15 16:10:28;;;;;;;10.30;2.97;;;18.90;99.90;;;;;;5094218;28;20063;-66
2023/11/15 16:13:32;;;;;;;9.45;3.17;;;20.10;99.90;;;;;;5081911;28;20356;-66
2023/11/15 16:16:36;;;;;;;12.40;3.50;;;;;;;;;;5094308;28;20059;-67
2023/11/15 16:19:42;;;;;;;12.57;3.30;;;20.40;99.90;;;;;;5094336;28;20036;-67
2023/11/15 16:22:46;;;;;;;9.23;2.95;;;19.60;99.90;;;;;;5093838;28;20047;-66
2023/11/15 16:25:50;;;;;;;11.93;3.40;;;;;;;;;;5094028;28;20483;-66
2023/11/15 16:28:55;;;;;;;15.07;3.70;;;;;;;;;;5081533;28;20401;-67
2023/11/15 16:31:59;;;;;;;12.27;4.35;;;19.80;99.90;;;;;;5093662;28;20052;-66
2023/11/15 16:35:05;;;;;;;17.58;5.45;;;;;;;;;;5093942;28;20051;-67
2023/11/15 16:38:09;;;;;;;22.25;4.57;;;;;;;;;;5094025;28;20051;-68
2023/11/15 16:41:17;;;;;;;23.85;4.63;;;;;;;;;;5093932;28;20361;-67
2023/11/15 16:44:28;;;;;;;19.42;4.68;;;19.60;99.90;;;;;;5093702;28;20063;-66
2023/11/15 16:47:32;;;;;;;;;;;19.60;99.90;;;;;;5093946;28;20039;-67
2023/11/15 16:50:38;;;;;;;24.55;6.53;;;;;;;;;;5093198;28;19915;-69
2023/11/15 16:53:43;;;;;;;19.48;5.20;;;;;;;;;;5093673;28;20043;-69
2023/11/15 16:56:47;;;;;;;20.75;5.32;;;;;;;;;;5092926;28;20040;-68
2023/11/15 16:59:53;;;;;;;25.50;5.80;;;19.30;99.90;;;;;;5093603;28;20036;-68
2023/11/15 17:02:59;;;;;;;23.08;5.78;;;;;;;;;;5093288;28;20039;-69
2023/11/15 17:06:04;;;;;;;20.23;6.40;;;;;;;;;;5092893;28;20063;-69
2023/11/15 17:09:10;;;;;;;27.50;6.65;;;;;;;;;;5093035;28;20043;-67
2023/11/15 17:12:14;;;;;;;31.42;6.85;;;;;;;;;;5092993;28;20079;-69
2023/11/15 17:15:19;;;;;;;30.70;7.60;;;;;;;;;;5093085;28;20070;-65
2023/11/15 17:18:23;;;;;;;29.50;8.65;;;;;;;;;;5092602;28;20044;-69